Skip Navigation LinksHome page > Weather > Current weather Skip Navigation Links

Current Weather

San Francisco International, San Francisco

For information only: do not use for flight planning or navigation.
Latest weather
Observation time Thursday, August 27, 2015 1:56 PM PDT
Local time Thursday, August 27, 2015 2:21 PM PDT
Flight conditions Visual Meteorological Conditions
Winds
Wind direction West (280°)
Wind speed 17 mph
Visibility 10 mi.
Sky condition
Ceiling unlimited
Cloud layer scattered clouds 18,000 ft.
Temperature 84°F
Dewpoint 48°F
Altimeter 30.02 in.Hg
Pressure change last 3 hours0.04 in.Hg
Pressure falling more quickly
Derived measurements
Relative humidity 29%
Heat index 84°F
Density altitude 1663 ft.
Sea-level pressure 30.02 in.Hg
Remarks
Automated weather observing station with precipitation discriminator.
METAR KSFO 272056Z 28015KT 10SM SCT180 29/09 A3002 RMK AO2 SLP166 T02890089 58012

Settings

Location code

InnerDrive.Weather 4.0.5567.0 Release CLR 4.0.30319.34014
Copyright ©2015 Inner Drive Technology. All rights reserved. Portions Copyright ©1986-2015 David Braverman.

Find weather

Site navigation


Skip Navigation Links

Place info

Page info

PayPal - The safer, easier way to pay online!

Return home.

Copyright ©2015 Inner Drive Technology. Purveyors of fine, hand-crafted computer software. Page printed 2015-08-27T21:21:05 UTC.